M I D A S
Marine Information and Data Acquisition System
Tripno 2025 of the Zeeleeuw from 2010-10-26 07:02:43 to 2010-10-26 15:31:46
Back to CruiseResearch ActivitiesStationsMapUnderway DataData graphs

EquipmentUnitsComment
TimeDGPSUTC
LatitudeDGPSDM.mWGS84
LongitudeDGPSDM.mWGS84
HeadingGyrodeg 
SOGDGPSknotsSpeed over ground
COGDGPSdegCourse over ground
DepthEcho soundermeters200 kHz
Missing or incorrect values are displayed as -999
Navigation data collected by the RV Zeeleeuw from 2010-10-26 06:59:19 to 2010-10-26 15:36:40
                                                                                    Next 1000 lines
Time Latitude Longitude Heading SOG COG Depth
2010-10-26 06:59:28 51°13.661 2°55.963 123.7 0.4 354 7.1
2010-10-26 06:59:33 51°13.661 2°55.963 123.7 0.3 345 7
2010-10-26 06:59:38 51°13.661 2°55.963 123.7 0.1 162 7
2010-10-26 06:59:43 51°13.661 2°55.963 123.7 0.1 147 7
2010-10-26 06:59:48 51°13.662 2°55.963 123.8 -999 12 7
2010-10-26 06:59:53 51°13.662 2°55.962 123.8 0.1 355 7
2010-10-26 06:59:58 51°13.662 2°55.962 123.8 0.1 3 7
2010-10-26 07:00:03 51°13.662 2°55.962 123.8 0.1 351 7
2010-10-26 07:00:07 51°13.662 2°55.962 123.8 0.1 352 7
2010-10-26 07:00:12 51°13.662 2°55.962 123.8 0.1 164 7
2010-10-26 07:00:17 51°13.662 2°55.962 123.9 0.2 178 7
2010-10-26 07:00:22 51°13.662 2°55.961 123.9 -999 294 7
2010-10-26 07:00:27 51°13.663 2°55.961 124 0.1 343 7
2010-10-26 07:00:31 51°13.662 2°55.961 124 0.1 154 7
2010-10-26 07:00:36 51°13.663 2°55.961 124 0.1 76 7
2010-10-26 07:00:41 51°13.663 2°55.961 124 0.1 54 7
2010-10-26 07:00:46 51°13.663 2°55.961 124 -999 197 7
2010-10-26 07:00:51 51°13.663 2°55.961 124 -999 164 7
2010-10-26 07:00:55 51°13.663 2°55.961 123.9 0.1 161 7
2010-10-26 07:01:00 51°13.663 2°55.961 123.9 0.1 174 7
2010-10-26 07:01:05 51°13.663 2°55.961 123.9 0.1 330 7
2010-10-26 07:01:10 51°13.663 2°55.961 123.9 0.1 15 7
2010-10-26 07:01:15 51°13.663 2°55.961 123.9 -999 97 7
2010-10-26 07:01:20 51°13.662 2°55.961 124.1 0.2 200 7
2010-10-26 07:01:25 51°13.662 2°55.961 124.2 -999 167 7.1
2010-10-26 07:01:30 51°13.662 2°55.961 124.2 0.1 6 7
2010-10-26 07:01:35 51°13.662 2°55.961 124.3 0.1 7 7
2010-10-26 07:01:40 51°13.662 2°55.961 124.3 0.2 23 7
2010-10-26 07:01:45 51°13.663 2°55.961 124.3 0.2 347 7
2010-10-26 07:01:50 51°13.662 2°55.961 124.3 0.1 4 7
2010-10-26 07:01:55 51°13.663 2°55.961 124.2 0.4 -999 7
2010-10-26 07:02:00 51°13.663 2°55.961 124.1 0.4 357 7
2010-10-26 07:02:05 51°13.663 2°55.961 123.9 0.1 356 7
2010-10-26 07:02:10 51°13.662 2°55.961 123.8 -999 106 7
2010-10-26 07:02:15 51°13.662 2°55.96 123.7 0.2 180 7.1
2010-10-26 07:02:20 51°13.662 2°55.96 123.7 0.1 174 7.1
2010-10-26 07:02:25 51°13.663 2°55.96 123.7 0.2 -999 7
2010-10-26 07:02:30 51°13.663 2°55.96 123.8 0.2 354 7
2010-10-26 07:02:35 51°13.663 2°55.96 124.1 -999 16 7
2010-10-26 07:02:40 51°13.663 2°55.96 124.2 0.3 355 7
2010-10-26 07:02:45 51°13.663 2°55.961 124.3 0.1 5 7
2010-10-26 07:02:50 51°13.664 2°55.961 124.3 0.4 -999 7
2010-10-26 07:02:55 51°13.663 2°55.961 124.3 0.1 160 7.1
2010-10-26 07:03:00 51°13.663 2°55.961 124.3 -999 270 7
2010-10-26 07:03:05 51°13.662 2°55.961 124.3 0.3 181 7
2010-10-26 07:03:10 51°13.662 2°55.961 124.3 0.4 171 7
2010-10-26 07:03:15 51°13.663 2°55.961 124.3 -999 246 7
2010-10-26 07:03:20 51°13.663 2°55.961 124.2 0.1 339 7
2010-10-26 07:03:25 51°13.664 2°55.961 124.2 0.2 6 7
2010-10-26 07:03:30 51°13.663 2°55.961 124.1 0.2 180 7
2010-10-26 07:03:35 51°13.663 2°55.961 124.1 0.2 180 7
2010-10-26 07:03:40 51°13.663 2°55.961 124.1 0.1 193 7
2010-10-26 07:03:45 51°13.663 2°55.961 124.1 0.1 158 7
2010-10-26 07:03:50 51°13.664 2°55.961 124 0.2 4 7
2010-10-26 07:03:55 51°13.663 2°55.961 124 0.1 200 7.1
2010-10-26 07:04:00 51°13.662 2°55.961 124 0.4 175 7
2010-10-26 07:04:05 51°13.663 2°55.961 124 0.1 185 7
2010-10-26 07:04:10 51°13.663 2°55.961 124.1 0.1 154 7
2010-10-26 07:04:15 51°13.663 2°55.961 124.2 -999 78 7
2010-10-26 07:04:20 51°13.663 2°55.96 124.5 0.1 356 7
2010-10-26 07:04:25 51°13.663 2°55.96 124.6 -999 34 7
2010-10-26 07:04:30 51°13.663 2°55.96 124.7 0.2 174 7
2010-10-26 07:04:35 51°13.663 2°55.96 124.7 0.1 176 7
2010-10-26 07:04:40 51°13.663 2°55.96 124.6 -999 201 7
2010-10-26 07:04:45 51°13.664 2°55.96 124.6 0.1 10 7
2010-10-26 07:04:50 51°13.664 2°55.96 124.6 0.1 12 7
2010-10-26 07:04:55 51°13.664 2°55.96 124.6 0.1 345 7
2010-10-26 07:05:00 51°13.663 2°55.96 124.7 0.1 179 7.1
2010-10-26 07:05:05 51°13.664 2°55.96 124.8 0.1 345 7
2010-10-26 07:05:10 51°13.664 2°55.96 124.9 -999 337 7
2010-10-26 07:05:15 51°13.664 2°55.96 124.9 0.1 349 7
2010-10-26 07:05:20 51°13.664 2°55.96 124.9 0.1 318 7
2010-10-26 07:05:25 51°13.664 2°55.96 124.9 0.1 299 7
2010-10-26 07:05:30 51°13.664 2°55.96 124.9 -999 10 7
2010-10-26 07:05:35 51°13.664 2°55.96 124.9 0.1 24 7.2
2010-10-26 07:05:40 51°13.664 2°55.96 124.9 0.2 354 7
2010-10-26 07:05:45 51°13.663 2°55.96 124.9 0.1 175 7
2010-10-26 07:05:50 51°13.662 2°55.96 125 0.5 177 7.2
2010-10-26 07:05:55 51°13.663 2°55.96 125 0.2 188 7
2010-10-26 07:06:00 51°13.663 2°55.96 125 -999 183 7.2
2010-10-26 07:06:05 51°13.663 2°55.96 125 -999 153 7
2010-10-26 07:06:10 51°13.663 2°55.96 125 0.1 118 7
2010-10-26 07:06:15 51°13.663 2°55.96 125 -999 151 7
2010-10-26 07:06:20 51°13.663 2°55.96 125 -999 224 7
2010-10-26 07:06:24 51°13.663 2°55.96 125.1 0.1 261 7
2010-10-26 07:06:30 51°13.663 2°55.96 125.7 0.1 324 7.1
2010-10-26 07:06:35 51°13.663 2°55.96 126.2 0.1 205 7
2010-10-26 07:06:40 51°13.663 2°55.96 127 -999 227 7.1
2010-10-26 07:06:45 51°13.663 2°55.96 127.2 0.1 307 7.1
2010-10-26 07:06:50 51°13.663 2°55.96 127.5 -999 336 7
2010-10-26 07:06:55 51°13.663 2°55.959 127.8 -999 64 7.1
2010-10-26 07:07:00 51°13.663 2°55.96 127.8 0.1 110 7
2010-10-26 07:07:05 51°13.663 2°55.96 127.9 0.1 101 7
2010-10-26 07:07:10 51°13.663 2°55.96 127.5 0.1 102 7.1
2010-10-26 07:07:15 51°13.663 2°55.96 126.5 0.1 96 7
2010-10-26 07:07:20 51°13.663 2°55.96 124.8 -999 155 7
2010-10-26 07:07:25 51°13.663 2°55.96 123.5 -999 199 7
2010-10-26 07:07:30 51°13.663 2°55.96 122 -999 213 7
2010-10-26 07:07:35 51°13.663 2°55.96 120.9 -999 217 7.1
2010-10-26 07:07:40 51°13.662 2°55.96 119.8 0.1 185 7
2010-10-26 07:07:45 51°13.662 2°55.96 119.1 0.1 190 7
2010-10-26 07:07:50 51°13.662 2°55.96 118.1 -999 198 7.1
2010-10-26 07:07:55 51°13.662 2°55.96 117.2 -999 249 7
2010-10-26 07:08:00 51°13.662 2°55.96 116.2 0.1 210 7
2010-10-26 07:08:05 51°13.662 2°55.96 115.6 -999 7 7.1
2010-10-26 07:08:10 51°13.662 2°55.96 114.8 -999 189 7.1
2010-10-26 07:08:15 51°13.662 2°55.96 114.2 -999 182 7.1
2010-10-26 07:08:20 51°13.662 2°55.96 113.5 0.1 178 7.1
2010-10-26 07:08:25 51°13.662 2°55.96 112.8 0.1 200 7.1
2010-10-26 07:08:30 51°13.662 2°55.96 112.1 0.1 192 7
2010-10-26 07:08:35 51°13.662 2°55.96 111.2 0.1 189 7.1
2010-10-26 07:08:40 51°13.661 2°55.96 110.6 0.1 176 7.1
2010-10-26 07:08:45 51°13.661 2°55.959 109.7 -999 274 7
2010-10-26 07:08:50 51°13.662 2°55.959 109.1 0.2 292 7.1
2010-10-26 07:08:55 51°13.662 2°55.958 108.9 0.4 294 7.1
2010-10-26 07:09:00 51°13.662 2°55.957 108.7 0.7 300 7.1
2010-10-26 07:09:05 51°13.663 2°55.955 108.6 0.9 296 7.1
2010-10-26 07:09:10 51°13.664 2°55.953 108.3 1.3 297 7.1
2010-10-26 07:09:15 51°13.665 2°55.95 108.1 1.6 296 7
2010-10-26 07:09:20 51°13.666 2°55.946 107.7 1.8 296 7.1
2010-10-26 07:09:26 51°13.667 2°55.941 107.1 2.1 294 -999
2010-10-26 07:09:31 51°13.669 2°55.936 106.2 2.5 294 -999
2010-10-26 07:09:37 51°13.67 2°55.929 105.4 3 293 -999
2010-10-26 07:09:43 51°13.672 2°55.921 104.6 3.3 289 -999
2010-10-26 07:09:48 51°13.674 2°55.913 103.7 3.7 288 -999
2010-10-26 07:09:54 51°13.676 2°55.904 102.6 4 287 -999
2010-10-26 07:09:59 51°13.677 2°55.895 101.7 4.1 286 -999
2010-10-26 07:10:04 51°13.679 2°55.886 100.7 4.3 284 -999
2010-10-26 07:10:09 51°13.68 2°55.876 100 4.4 283 -999
2010-10-26 07:10:14 51°13.682 2°55.866 99.1 4.4 283 -999
2010-10-26 07:10:19 51°13.683 2°55.857 98.3 4.4 282 -999
2010-10-26 07:10:24 51°13.684 2°55.847 97.2 4.3 281 -999
2010-10-26 07:10:29 51°13.685 2°55.838 96 4.2 280 -999
2010-10-26 07:10:34 51°13.686 2°55.829 94.9 4.1 280 -999
2010-10-26 07:10:39 51°13.687 2°55.82 93.7 4 279 -999
2010-10-26 07:10:43 51°13.687 2°55.814 92.4 4 278 -999
2010-10-26 07:10:49 51°13.688 2°55.803 91.2 4 277 -999
2010-10-26 07:10:54 51°13.689 2°55.794 89.5 4 276 -999
2010-10-26 07:10:59 51°13.689 2°55.786 87.5 3.8 274 -999
2010-10-26 07:11:03 51°13.689 2°55.779 85.2 3.6 273 -999
2010-10-26 07:11:09 51°13.689 2°55.77 83.6 3.4 271 -999
2010-10-26 07:11:14 51°13.689 2°55.764 81.3 2.9 269 -999
2010-10-26 07:11:19 51°13.689 2°55.759 79.2 2.2 268 -999
2010-10-26 07:11:23 51°13.689 2°55.756 76.1 1.5 270 12
2010-10-26 07:11:28 51°13.689 2°55.754 72.8 1.1 277 11.9
2010-10-26 07:11:33 51°13.69 2°55.752 70.1 0.5 306 11.7
2010-10-26 07:11:38 51°13.69 2°55.752 66.6 0.5 328 11.8
2010-10-26 07:11:43 51°13.691 2°55.752 61.1 0.6 345 11.9
2010-10-26 07:11:47 51°13.692 2°55.752 55.3 0.6 4 12
2010-10-26 07:11:52 51°13.693 2°55.752 50.4 0.7 357 12.2
2010-10-26 07:11:58 51°13.694 2°55.752 45.2 0.7 8 12.3
2010-10-26 07:12:03 51°13.695 2°55.752 41.2 0.9 -999 12.4
2010-10-26 07:12:07 51°13.696 2°55.752 37.1 0.9 9 12.5
2010-10-26 07:12:12 51°13.698 2°55.752 33.3 1.1 -999 12.6
2010-10-26 07:12:17 51°13.699 2°55.752 29.2 1.1 6 12.6
2010-10-26 07:12:22 51°13.701 2°55.752 25.3 1.2 359 12.7
2010-10-26 07:12:27 51°13.703 2°55.752 21.1 1.3 -999 12.8
2010-10-26 07:12:31 51°13.704 2°55.752 16.9 1.5 355 12.9
2010-10-26 07:12:36 51°13.707 2°55.751 12.8 1.6 354 13
2010-10-26 07:12:41 51°13.709 2°55.751 8.6 1.7 350 13.2
2010-10-26 07:12:46 51°13.711 2°55.75 4.1 1.9 349 12.8
2010-10-26 07:12:51 51°13.714 2°55.749 359.4 2.1 346 12.4
2010-10-26 07:12:56 51°13.717 2°55.747 354.1 2.3 344 12.1
2010-10-26 07:13:00 51°13.719 2°55.746 348.7 2.5 338 11.9
2010-10-26 07:13:06 51°13.723 2°55.742 342.9 2.8 333 11.5
2010-10-26 07:13:12 51°13.727 2°55.738 336.8 3.1 329 11.5
2010-10-26 07:13:16 51°13.731 2°55.734 330.3 3.4 326 11.2
2010-10-26 07:13:21 51°13.735 2°55.729 326 3.7 325 10.9
2010-10-26 07:13:25 51°13.738 2°55.725 323.5 4.1 323 10.6
2010-10-26 07:13:31 51°13.745 2°55.718 322.1 4.4 323 10.8
2010-10-26 07:13:36 51°13.75 2°55.711 321.6 4.8 322 10.5
2010-10-26 07:13:40 51°13.754 2°55.706 321.6 5 322 10
2010-10-26 07:13:45 51°13.76 2°55.698 322 5.3 322 10.2
2010-10-26 07:13:51 51°13.767 2°55.689 322.2 5.8 323 10.7
2010-10-26 07:13:56 51°13.774 2°55.681 322 6 323 11.5
2010-10-26 07:14:00 51°13.78 2°55.675 322.4 6.3 323 10.8
2010-10-26 07:14:05 51°13.788 2°55.667 323.8 6.5 326 10.8
2010-10-26 07:14:10 51°13.795 2°55.658 325.9 6.8 327 11.1
2010-10-26 07:14:16 51°13.805 2°55.649 327.6 7.1 329 10.9
2010-10-26 07:14:20 51°13.812 2°55.642 329.2 7.3 330 10.8
2010-10-26 07:14:25 51°13.822 2°55.635 330.8 7.4 332 10.6
2010-10-26 07:14:30 51°13.831 2°55.627 332.5 7.6 333 10.6
2010-10-26 07:14:35 51°13.841 2°55.62 333.8 7.7 334 10.4
2010-10-26 07:14:40 51°13.851 2°55.612 334.7 7.9 336 10.5
2010-10-26 07:14:45 51°13.861 2°55.605 335.2 8 336 10.1
2010-10-26 07:14:50 51°13.871 2°55.597 335.8 8.1 336 9.8
2010-10-26 07:14:55 51°13.881 2°55.59 336.1 8.3 336 10.2
2010-10-26 07:15:00 51°13.892 2°55.583 336.1 8.4 336 10.3
2010-10-26 07:15:05 51°13.902 2°55.575 336.4 8.4 337 10.2
2010-10-26 07:15:10 51°13.913 2°55.568 336.9 8.5 337 9.8
2010-10-26 07:15:16 51°13.926 2°55.559 336.8 8.5 336 9.8
2010-10-26 07:15:20 51°13.935 2°55.552 336.1 8.5 335 9.7
2010-10-26 07:15:25 51°13.946 2°55.545 335.6 8.8 337 9.9
2010-10-26 07:15:31 51°13.96 2°55.536 335.7 8.9 337 -999
2010-10-26 07:15:36 51°13.971 2°55.527 335.7 8.9 336 -999
2010-10-26 07:15:41 51°13.982 2°55.52 335.8 8.8 337 -999
2010-10-26 07:15:47 51°13.995 2°55.51 335.9 8.7 336 9.7
2010-10-26 07:15:52 51°14.005 2°55.502 335.9 8.7 337 9.3
2010-10-26 07:15:57 51°14.016 2°55.494 336.1 8.7 336 9.6
2010-10-26 07:16:02 51°14.028 2°55.487 336.1 8.8 336 9
2010-10-26 07:16:07 51°14.04 2°55.479 336 8.9 336 -999
2010-10-26 07:16:12 51°14.05 2°55.47 335.3 8.9 334 9.1
2010-10-26 07:16:17 51°14.061 2°55.462 334.7 8.9 334 9
2010-10-26 07:16:22 51°14.074 2°55.454 334.4 9.2 335 9.2
2010-10-26 07:16:27 51°14.085 2°55.444 334.4 9.2 334 9
2010-10-26 07:16:32 51°14.097 2°55.435 334 9.5 332 9.1
2010-10-26 07:16:38 51°14.111 2°55.423 332.6 9.5 333 9.2
2010-10-26 07:16:44 51°14.125 2°55.411 332.6 9.6 333 -999
2010-10-26 07:16:48 51°14.134 2°55.403 332.7 9.7 332 9.2
2010-10-26 07:16:54 51°14.149 2°55.391 332.5 9.8 332 -999
2010-10-26 07:16:59 51°14.161 2°55.381 331.8 9.9 331 -999
2010-10-26 07:17:04 51°14.173 2°55.37 331.5 9.9 331 -999
2010-10-26 07:17:09 51°14.185 2°55.359 331.3 10 331 -999
2010-10-26 07:17:14 51°14.197 2°55.349 330.9 10 331 -999
2010-10-26 07:17:19 51°14.209 2°55.338 331.3 10 331 -999
2010-10-26 07:17:24 51°14.222 2°55.327 331.3 10.1 331 -999
2010-10-26 07:17:29 51°14.233 2°55.316 331 10.1 330 -999
2010-10-26 07:17:34 51°14.246 2°55.305 330.7 10.1 330 -999
2010-10-26 07:17:39 51°14.258 2°55.294 330.8 10.2 330 9.3
2010-10-26 07:17:44 51°14.27 2°55.282 330.4 10.2 329 -999
2010-10-26 07:17:49 51°14.283 2°55.27 330.3 10.4 330 -999
2010-10-26 07:17:54 51°14.295 2°55.258 329.8 10.4 328 -999
2010-10-26 07:17:59 51°14.307 2°55.246 329 10.5 328 9.1
2010-10-26 07:18:04 51°14.319 2°55.233 328.7 10.6 328 -999
2010-10-26 07:18:09 51°14.332 2°55.221 328.2 10.7 328 -999
2010-10-26 07:18:14 51°14.346 2°55.209 328.6 10.9 329 9
2010-10-26 07:18:19 51°14.359 2°55.196 329.2 11.1 329 8.7
2010-10-26 07:18:24 51°14.372 2°55.184 329.6 11.2 330 8.8
2010-10-26 07:18:28 51°14.383 2°55.173 329.7 11.3 328 8.9
2010-10-26 07:18:33 51°14.396 2°55.16 329.1 11.3 329 8.8
2010-10-26 07:18:38 51°14.409 2°55.146 328.9 11.5 327 9.2
2010-10-26 07:18:43 51°14.423 2°55.133 327.8 11.5 328 -999
2010-10-26 07:18:48 51°14.436 2°55.119 327.8 11.6 328 8.9
2010-10-26 07:18:53 51°14.45 2°55.105 328 11.6 327 9.4
2010-10-26 07:18:58 51°14.463 2°55.091 327.2 11.6 327 9.7
2010-10-26 07:19:04 51°14.48 2°55.074 327 11.7 327 9.6
2010-10-26 07:19:08 51°14.491 2°55.062 327.4 11.7 326 9.9
2010-10-26 07:19:13 51°14.505 2°55.048 327.2 11.8 327 9.7
2010-10-26 07:19:17 51°14.516 2°55.037 327 11.8 327 9.6
2010-10-26 07:19:23 51°14.532 2°55.02 327.2 11.9 327 10.3
2010-10-26 07:19:28 51°14.546 2°55.005 327.4 11.9 325 10.3
2010-10-26 07:19:32 51°14.557 2°54.993 327.4 11.9 324 10.3
2010-10-26 07:19:37 51°14.57 2°54.976 327.5 12 323 10.2
2010-10-26 07:19:42 51°14.583 2°54.959 326.8 12.1 321 10.3
2010-10-26 07:19:47 51°14.595 2°54.942 325.5 12.1 320 10.3
2010-10-26 07:19:52 51°14.608 2°54.925 325.2 12 321 10.3
2010-10-26 07:19:56 51°14.619 2°54.912 326.7 12 322 10.3
2010-10-26 07:20:01 51°14.632 2°54.896 327.7 12 322 10.4
2010-10-26 07:20:06 51°14.645 2°54.88 328.4 11.9 323 10.3
2010-10-26 07:20:11 51°14.658 2°54.865 329.3 11.8 324 10.1
2010-10-26 07:20:16 51°14.672 2°54.851 330.9 11.7 326 10.4
2010-10-26 07:20:20 51°14.683 2°54.839 332 11.8 326 10.4
2010-10-26 07:20:25 51°14.697 2°54.825 332.5 11.8 327 10.4
2010-10-26 07:20:31 51°14.714 2°54.808 332.6 11.9 327 10.2
2010-10-26 07:20:36 51°14.728 2°54.794 332.1 11.9 326 10.5
2010-10-26 07:20:40 51°14.739 2°54.782 331 11.9 326 10.5
2010-10-26 07:20:45 51°14.753 2°54.768 331.3 11.7 327 10.6
2010-10-26 07:20:51 51°14.77 2°54.752 332.4 11.8 328 10.5
2010-10-26 07:20:56 51°14.783 2°54.738 332.9 11.6 328 10.5
2010-10-26 07:21:00 51°14.794 2°54.728 334 11.7 330 10.5
2010-10-26 07:21:05 51°14.808 2°54.714 334 11.7 328 10.3
2010-10-26 07:21:10 51°14.822 2°54.701 333.8 11.7 329 10.4
2010-10-26 07:21:16 51°14.838 2°54.684 333.6 11.7 328 10.5
2010-10-26 07:21:20 51°14.849 2°54.673 333.7 11.6 329 10.5
2010-10-26 07:21:25 51°14.863 2°54.659 334.1 11.7 329 10.7
2010-10-26 07:21:30 51°14.877 2°54.646 334.7 11.7 330 10.8
2010-10-26 07:21:36 51°14.894 2°54.632 335.7 11.7 331 -999
2010-10-26 07:21:40 51°14.906 2°54.623 337.6 11.6 333 10.5
2010-10-26 07:21:46 51°14.923 2°54.609 338.4 11.8 333 10.7
2010-10-26 07:21:51 51°14.937 2°54.597 339.5 11.5 334 9.9
2010-10-26 07:21:55 51°14.95 2°54.589 340.5 11.5 336 9
2010-10-26 07:22:00 51°14.965 2°54.58 342.3 11.5 338 8.8
2010-10-26 07:22:05 51°14.979 2°54.571 343.7 11.2 339 8.6
2010-10-26 07:22:11 51°14.995 2°54.561 345.3 11.1 341 8.7
2010-10-26 07:22:15 51°15.006 2°54.556 348.3 10.9 345 8.8
2010-10-26 07:22:20 51°15.022 2°54.552 351.8 11 348 8.4
2010-10-26 07:22:25 51°15.038 2°54.548 353.7 11 350 8
2010-10-26 07:22:31 51°15.056 2°54.545 356.5 10.9 353 7.9
2010-10-26 07:22:35 51°15.068 2°54.543 357.8 10.9 353 7.4
2010-10-26 07:22:40 51°15.084 2°54.541 358.6 10.8 354 7
2010-10-26 07:22:44 51°15.095 2°54.539 359.1 10.7 354 7.3
2010-10-26 07:22:50 51°15.113 2°54.536 359.6 10.7 354 7.3
2010-10-26 07:22:55 51°15.128 2°54.532 358.6 10.8 351 7.3
2010-10-26 07:23:00 51°15.143 2°54.527 356.2 10.9 347 7.4
2010-10-26 07:23:05 51°15.157 2°54.519 352.6 10.9 343 7.5
2010-10-26 07:23:10 51°15.171 2°54.51 348.5 11 337 5.8
2010-10-26 07:23:15 51°15.184 2°54.498 343.1 11.1 332 7.9
2010-10-26 07:23:20 51°15.197 2°54.484 336.4 11.3 326 7.9
2010-10-26 07:23:24 51°15.207 2°54.472 332.1 11.3 321 8
2010-10-26 07:23:30 51°15.221 2°54.452 326 11.3 319 8
2010-10-26 07:23:35 51°15.233 2°54.435 323.9 11.3 319 7.9
2010-10-26 07:23:40 51°15.245 2°54.42 325.4 11.4 321 7.9
2010-10-26 07:23:45 51°15.257 2°54.404 326 11.5 320 7.9
2010-10-26 07:23:50 51°15.27 2°54.387 325.4 11.6 320 8
2010-10-26 07:23:55 51°15.282 2°54.37 325.1 11.6 319 8
2010-10-26 07:24:00 51°15.294 2°54.353 324.4 11.6 318 8.1
2010-10-26 07:24:05 51°15.306 2°54.336 323.7 11.6 318 8.1
2010-10-26 07:24:10 51°15.318 2°54.318 321.8 11.7 316 8.1
2010-10-26 07:24:16 51°15.332 2°54.297 321.3 11.8 317 8.1
2010-10-26 07:24:20 51°15.341 2°54.281 320.2 11.9 313 8.4
2010-10-26 07:24:24 51°15.35 2°54.266 319.5 11.9 315 8.4
2010-10-26 07:24:31 51°15.366 2°54.239 317.7 11.9 312 8.5
2010-10-26 07:24:35 51°15.375 2°54.223 316.5 11.9 313 8.8
2010-10-26 07:24:40 51°15.386 2°54.205 317.3 11.6 313 8.4
2010-10-26 07:24:45 51°15.396 2°54.187 317.1 11.1 313 8.7
2010-10-26 07:24:51 51°15.408 2°54.166 317.8 10.7 314 8.6
2010-10-26 07:24:56 51°15.418 2°54.15 318 10.3 314 8.6
2010-10-26 07:25:00 51°15.425 2°54.137 318.4 10 315 8.8
2010-10-26 07:25:04 51°15.433 2°54.125 318.4 9.6 314 8.8
2010-10-26 07:25:10 51°15.444 2°54.107 318.5 9.2 314 8.8
2010-10-26 07:25:16 51°15.454 2°54.09 318.5 8.9 314 9
2010-10-26 07:25:20 51°15.461 2°54.08 318.4 8.6 315 9.4
2010-10-26 07:25:24 51°15.467 2°54.069 318 8.3 312 9.3
2010-10-26 07:25:30 51°15.476 2°54.053 317.3 8 312 9.3
2010-10-26 07:25:36 51°15.484 2°54.037 316.8 7.9 312 9.3
2010-10-26 07:25:40 51°15.489 2°54.027 316.3 7.7 311 9.4
2010-10-26 07:25:45 51°15.497 2°54.014 315.9 7.5 311 9.6
2010-10-26 07:25:50 51°15.503 2°54.002 315.7 7.3 311 9.6
2010-10-26 07:25:56 51°15.511 2°53.988 315.4 7.2 311 9.5
2010-10-26 07:26:00 51°15.516 2°53.978 315.4 7.1 311 9.7
2010-10-26 07:26:05 51°15.522 2°53.966 315.3 7 311 9.6
2010-10-26 07:26:11 51°15.53 2°53.952 315.3 6.9 311 9.4
2010-10-26 07:26:16 51°15.536 2°53.941 315.2 6.8 310 9.5
2010-10-26 07:26:20 51°15.541 2°53.932 315.2 6.7 311 9.4
2010-10-26 07:26:25 51°15.547 2°53.921 315.4 6.5 311 9.7
2010-10-26 07:26:30 51°15.552 2°53.91 315.7 6.4 311 9.9
2010-10-26 07:26:36 51°15.559 2°53.898 315.5 6.3 311 9.9
2010-10-26 07:26:40 51°15.563 2°53.889 315.3 6.2 310 9.9
2010-10-26 07:26:45 51°15.569 2°53.879 315.3 6.1 311 9.9
2010-10-26 07:26:50 51°15.574 2°53.868 315.4 6.1 310 9.8
2010-10-26 07:26:56 51°15.581 2°53.856 315.3 6.1 311 9.8
2010-10-26 07:27:00 51°15.585 2°53.848 315.6 6 311 10
2010-10-26 07:27:04 51°15.589 2°53.84 315.7 5.9 311 10.2
2010-10-26 07:27:11 51°15.597 2°53.826 315.8 5.9 311 10
2010-10-26 07:27:15 51°15.601 2°53.819 315.9 5.9 311 9.9
2010-10-26 07:27:20 51°15.607 2°53.809 316 5.8 311 10.1
2010-10-26 07:27:25 51°15.612 2°53.799 316.2 5.9 312 10
2010-10-26 07:27:30 51°15.617 2°53.79 316.2 5.8 312 10
2010-10-26 07:27:36 51°15.624 2°53.778 315.9 5.9 311 10
2010-10-26 07:27:40 51°15.628 2°53.77 316 5.8 311 10.1
2010-10-26 07:27:45 51°15.633 2°53.76 315.8 5.9 309 10.4
2010-10-26 07:27:51 51°15.64 2°53.748 315.8 5.9 311 10.4
2010-10-26 07:27:56 51°15.645 2°53.739 315.9 6 311 10.4
2010-10-26 07:28:00 51°15.649 2°53.73 316.1 6 311 10.1
2010-10-26 07:28:05 51°15.655 2°53.72 316.2 6.1 310 10.5
2010-10-26 07:28:10 51°15.66 2°53.71 316.5 6.1 312 10.5
2010-10-26 07:28:16 51°15.667 2°53.698 316.6 6.2 312 10.2
2010-10-26 07:28:20 51°15.672 2°53.69 316.4 6.3 312 10.3
2010-10-26 07:28:25 51°15.678 2°53.679 316.7 6.3 313 10.5
2010-10-26 07:28:30 51°15.684 2°53.67 318.1 6.3 314 10.4
2010-10-26 07:28:35 51°15.69 2°53.66 319.2 6.3 316 10.4
2010-10-26 07:28:40 51°15.697 2°53.65 319.9 6.4 315 10.3
2010-10-26 07:28:45 51°15.703 2°53.64 320.6 6.4 317 10.3
2010-10-26 07:28:50 51°15.71 2°53.63 321.3 6.4 318 10.5
2010-10-26 07:28:55 51°15.717 2°53.621 321.7 6.4 317 10.5
2010-10-26 07:29:00 51°15.723 2°53.611 322.3 6.4 318 10.3
2010-10-26 07:29:05 51°15.729 2°53.601 322.6 6.4 317 10.3
2010-10-26 07:29:10 51°15.736 2°53.592 322.6 6.3 316 10.4
2010-10-26 07:29:15 51°15.742 2°53.582 322.3 6.3 316 10.7
2010-10-26 07:29:20 51°15.748 2°53.573 322.3 6.2 316 10.6
2010-10-26 07:29:24 51°15.753 2°53.565 322.3 6.2 316 10.4
2010-10-26 07:29:30 51°15.761 2°53.553 322.9 6.1 316 10.3
2010-10-26 07:29:35 51°15.767 2°53.544 323.7 6.1 317 10.4
2010-10-26 07:29:40 51°15.773 2°53.535 324.2 6.2 317 10.3
2010-10-26 07:29:45 51°15.779 2°53.525 324.9 6.1 318 10.4
2010-10-26 07:29:50 51°15.785 2°53.516 325.3 6.1 317 10.5
2010-10-26 07:29:55 51°15.792 2°53.508 326 6.1 318 10.6
2010-10-26 07:30:00 51°15.798 2°53.498 326.4 6.1 317 10.8
2010-10-26 07:30:05 51°15.804 2°53.49 326.7 6.1 318 10.6
2010-10-26 07:30:10 51°15.81 2°53.48 326.9 6.1 318 10.8
2010-10-26 07:30:15 51°15.817 2°53.471 327 6.2 318 10.9
2010-10-26 07:30:20 51°15.823 2°53.463 327.4 6.1 318 10.7
2010-10-26 07:30:25 51°15.829 2°53.453 327.1 6.1 318 10.6
2010-10-26 07:30:30 51°15.836 2°53.444 327.1 6.1 318 10.7
2010-10-26 07:30:35 51°15.842 2°53.435 327.2 6.1 318 10.7
2010-10-26 07:30:40 51°15.848 2°53.426 327.5 6.1 319 10.9
2010-10-26 07:30:45 51°15.855 2°53.418 328.4 6.1 320 10.6
2010-10-26 07:30:50 51°15.861 2°53.409 328.9 6 319 10.6
2010-10-26 07:30:55 51°15.867 2°53.4 329.2 6 320 10.7
2010-10-26 07:31:00 51°15.873 2°53.392 329.7 6.1 320 10.5
2010-10-26 07:31:05 51°15.88 2°53.383 330.1 6 320 10.6
2010-10-26 07:31:11 51°15.887 2°53.372 330.1 6 318 10.8
2010-10-26 07:31:15 51°15.893 2°53.366 330.4 6 321 10.9
2010-10-26 07:31:20 51°15.899 2°53.357 330.6 6 320 10.5
2010-10-26 07:31:25 51°15.905 2°53.349 330.6 6 321 10.6
2010-10-26 07:31:31 51°15.913 2°53.339 330.8 6.1 320 10.7
2010-10-26 07:31:35 51°15.918 2°53.332 330.9 6 322 10.6
2010-10-26 07:31:40 51°15.925 2°53.324 331.4 6.1 320 10.6
2010-10-26 07:31:45 51°15.932 2°53.316 332.2 6 322 10.7
2010-10-26 07:31:50 51°15.938 2°53.307 332.5 6 321 10.6
2010-10-26 07:31:55 51°15.945 2°53.3 332.7 6 323 10.7
2010-10-26 07:32:00 51°15.952 2°53.291 333.2 6 322 10.8
2010-10-26 07:32:05 51°15.958 2°53.283 333.1 6.1 324 10.6
2010-10-26 07:32:10 51°15.965 2°53.275 333.2 6.2 323 10.8
2010-10-26 07:32:15 51°15.972 2°53.267 333.4 6.2 324 10.8
2010-10-26 07:32:20 51°15.978 2°53.259 333.5 6.1 322 10.7
2010-10-26 07:32:25 51°15.985 2°53.251 333.4 6.1 323 10.5
2010-10-26 07:32:30 51°15.992 2°53.242 333.4 5.9 322 10.5
2010-10-26 07:32:35 51°15.999 2°53.234 333.5 6.1 323 10.7
2010-10-26 07:32:40 51°16.005 2°53.226 333.8 6.1 324 10.6
2010-10-26 07:32:45 51°16.012 2°53.218 333.8 6 323 10.8
2010-10-26 07:32:50 51°16.019 2°53.21 333.5 6.1 322 11
2010-10-26 07:32:55 51°16.025 2°53.202 333.5 6 323 10.8
2010-10-26 07:33:00 51°16.032 2°53.194 333.2 6.1 323 10.6
2010-10-26 07:33:04 51°16.038 2°53.188 333 6.1 324 10.9
2010-10-26 07:33:10 51°16.046 2°53.178 332.9 6.1 323 11
2010-10-26 07:33:15 51°16.052 2°53.17 333.1 6.1 323 10.9
2010-10-26 07:33:20 51°16.059 2°53.162 333.2 6.1 324 10.8
2010-10-26 07:33:25 51°16.065 2°53.154 333.3 6 323 10.8
2010-10-26 07:33:30 51°16.072 2°53.146 333.3 6 323 11
2010-10-26 07:33:35 51°16.079 2°53.138 333.3 6 322 10.9
2010-10-26 07:33:40 51°16.085 2°53.13 333.5 5.9 322 11
2010-10-26 07:33:45 51°16.093 2°53.122 333.4 6 323 10.8
2010-10-26 07:33:51 51°16.101 2°53.113 333.4 6.2 325 10.9
2010-10-26 07:33:55 51°16.106 2°53.106 333.3 6 323 10.8
2010-10-26 07:34:00 51°16.113 2°53.098 333.3 5.9 322 10.9
2010-10-26 07:34:05 51°16.119 2°53.09 333.2 6 322 11.1
2010-10-26 07:34:10 51°16.126 2°53.082 333.1 6 324 11
2010-10-26 07:34:15 51°16.133 2°53.074 332.8 6 322 10.9
2010-10-26 07:34:20 51°16.139 2°53.066 332.6 6 323 10.8
2010-10-26 07:34:25 51°16.146 2°53.058 332.6 6.1 323 10.8
2010-10-26 07:34:30 51°16.153 2°53.05 332.5 6.1 324 11
2010-10-26 07:34:35 51°16.16 2°53.042 332.5 6.1 324 10.9
2010-10-26 07:34:40 51°16.166 2°53.034 332.5 6 323 11
2010-10-26 07:34:45 51°16.173 2°53.026 332.5 5.9 323 10.7
2010-10-26 07:34:50 51°16.18 2°53.018 332.7 6 323 10.7
2010-10-26 07:34:55 51°16.186 2°53.01 332.8 6 324 10.9
2010-10-26 07:35:00 51°16.193 2°53.002 333 6 323 10.8
2010-10-26 07:35:05 51°16.2 2°52.994 333 6.1 325 11
2010-10-26 07:35:10 51°16.206 2°52.986 332.9 6.1 325 10.9
2010-10-26 07:35:15 51°16.213 2°52.978 333 6 324 11
2010-10-26 07:35:20 51°16.221 2°52.971 333.2 6 324 10.9
2010-10-26 07:35:24 51°16.226 2°52.965 333.1 5.9 323 10.9
2010-10-26 07:35:30 51°16.233 2°52.955 333 6 324 11.1
2010-10-26 07:35:35 51°16.24 2°52.948 333.1 6 325 11
2010-10-26 07:35:40 51°16.247 2°52.94 333.3 6.1 326 11
2010-10-26 07:35:45 51°16.254 2°52.933 334 6.1 327 11
2010-10-26 07:35:50 51°16.261 2°52.925 335.3 6.1 328 10.9
2010-10-26 07:35:55 51°16.268 2°52.918 336.1 6.1 328 11.1
2010-10-26 07:36:00 51°16.276 2°52.911 336.9 6.2 328 10.9
2010-10-26 07:36:04 51°16.282 2°52.905 337.9 6.2 331 11.1
2010-10-26 07:36:10 51°16.291 2°52.897 338.6 6.3 330 11.1
2010-10-26 07:36:16 51°16.3 2°52.889 339.2 6.2 331 11.1
2010-10-26 07:36:20 51°16.306 2°52.884 339.8 6.3 331 11
2010-10-26 07:36:24 51°16.312 2°52.879 340.4 6.3 333 10.9
2010-10-26 07:36:30 51°16.321 2°52.871 340.5 6.3 332 11
2010-10-26 07:36:35 51°16.329 2°52.865 340.7 6.4 333 11
2010-10-26 07:36:40 51°16.337 2°52.858 340.9 6.3 333 10.9
2010-10-26 07:36:45 51°16.345 2°52.852 340.9 6.4 332 11
2010-10-26 07:36:50 51°16.353 2°52.846 341.1 6.5 333 10.9
2010-10-26 07:36:55 51°16.36 2°52.839 340.9 6.5 333 10.8
2010-10-26 07:37:00 51°16.368 2°52.833 340.7 6.4 334 11.4
2010-10-26 07:37:05 51°16.376 2°52.826 340.5 6.4 333 11.1
2010-10-26 07:37:10 51°16.384 2°52.82 340.6 6.4 333 11
2010-10-26 07:37:15 51°16.392 2°52.813 340.5 6.5 333 10.9
2010-10-26 07:37:20 51°16.4 2°52.807 340.3 6.5 333 11
2010-10-26 07:37:25 51°16.408 2°52.8 340.2 6.5 333 11
2010-10-26 07:37:30 51°16.416 2°52.794 340 6.5 333 11
2010-10-26 07:37:35 51°16.424 2°52.787 339.9 6.5 332 11.1
2010-10-26 07:37:40 51°16.432 2°52.781 340.2 6.4 334 11.1
2010-10-26 07:37:45 51°16.44 2°52.774 339.9 6.4 332 10.7
2010-10-26 07:37:50 51°16.448 2°52.768 339.8 6.5 333 10.7
2010-10-26 07:37:55 51°16.456 2°52.761 339.8 6.4 333 11.1
2010-10-26 07:38:00 51°16.464 2°52.754 339.9 6.5 332 11
2010-10-26 07:38:05 51°16.472 2°52.748 339.9 6.5 333 10.9
2010-10-26 07:38:11 51°16.481 2°52.74 339.7 6.5 333 10.8
2010-10-26 07:38:15 51°16.488 2°52.734 339.7 6.5 333 10.7
2010-10-26 07:38:20 51°16.496 2°52.728 339.9 6.5 333 10.8
2010-10-26 07:38:25 51°16.504 2°52.722 340 6.5 333 10.7
2010-10-26 07:38:30 51°16.512 2°52.715 340 6.5 333 10.7
2010-10-26 07:38:35 51°16.52 2°52.709 340.1 6.4 333 10.6
2010-10-26 07:38:40 51°16.528 2°52.702 340 6.5 333 10.7
2010-10-26 07:38:45 51°16.536 2°52.695 339.8 6.5 333 10.7
2010-10-26 07:38:50 51°16.544 2°52.689 339.8 6.5 333 10.6
2010-10-26 07:38:55 51°16.552 2°52.682 339.9 6.5 332 10.5
2010-10-26 07:39:00 51°16.56 2°52.676 340 6.4 333 10.8
2010-10-26 07:39:05 51°16.568 2°52.669 339.8 6.4 333 10.6
2010-10-26 07:39:10 51°16.576 2°52.663 339.7 6.4 334 10.6
2010-10-26 07:39:15 51°16.584 2°52.656 339.8 6.4 333 10.5
2010-10-26 07:39:20 51°16.592 2°52.65 340 6.5 334 10.2
2010-10-26 07:39:24 51°16.598 2°52.645 341.7 6.4 336 10.5
2010-10-26 07:39:30 51°16.608 2°52.638 343.4 6.5 338 10.6
2010-10-26 07:39:35 51°16.617 2°52.634 344.4 6.4 339 10.5
2010-10-26 07:39:40 51°16.625 2°52.629 346 6.4 340 10.2
2010-10-26 07:39:45 51°16.633 2°52.624 347.3 6.3 341 10.3
2010-10-26 07:39:50 51°16.641 2°52.62 348.3 6.3 342 10.1
2010-10-26 07:39:55 51°16.65 2°52.616 349.2 6.4 342 10.2
2010-10-26 07:40:00 51°16.658 2°52.611 349.7 6.3 344 10.4
2010-10-26 07:40:04 51°16.665 2°52.608 350.4 6.3 344 10.3
2010-10-26 07:40:10 51°16.675 2°52.604 350.8 6.4 344 9.8
2010-10-26 07:40:15 51°16.684 2°52.6 351.4 6.4 346 9.8
2010-10-26 07:40:20 51°16.692 2°52.596 351.4 6.4 344 9.5
2010-10-26 07:40:24 51°16.699 2°52.594 351.4 6.3 345 9.4
2010-10-26 07:40:30 51°16.709 2°52.59 351.7 6.4 346 9.5
2010-10-26 07:40:35 51°16.718 2°52.586 351.7 6.4 345 9.5
2010-10-26 07:40:40 51°16.726 2°52.582 351.5 6.3 345 9.1
2010-10-26 07:40:45 51°16.735 2°52.579 351.6 6.3 346 9
2010-10-26 07:40:50 51°16.743 2°52.575 351.4 6.3 345 8.8
2010-10-26 07:40:55 51°16.752 2°52.572 351.3 6.3 346 9.1
2010-10-26 07:41:00 51°16.76 2°52.568 351.3 6.3 344 9.1
2010-10-26 07:41:05 51°16.768 2°52.565 351.4 6.3 346 9.1
2010-10-26 07:41:10 51°16.777 2°52.561 351.3 6.4 345 9
2010-10-26 07:41:15 51°16.785 2°52.557 350.9 6.3 345 9.1
2010-10-26 07:41:20 51°16.794 2°52.554 350.6 6.4 344 9.1
2010-10-26 07:41:25 51°16.802 2°52.55 350.5 6.3 345 8.8
2010-10-26 07:41:30 51°16.811 2°52.546 350.2 6.3 345 9.2
2010-10-26 07:41:35 51°16.819 2°52.542 350 6.3 344 9
2010-10-26 07:41:40 51°16.828 2°52.539 350 6.3 345 9.1
2010-10-26 07:41:45 51°16.836 2°52.534 349.9 6.5 344 9.2
2010-10-26 07:41:50 51°16.845 2°52.531 349.7 6.4 345 9.3
2010-10-26 07:41:55 51°16.853 2°52.527 349.6 6.3 343 9.3
2010-10-26 07:42:00 51°16.862 2°52.523 349.6 6.3 344 8.8
2010-10-26 07:42:05 51°16.87 2°52.519 349.6 6.3 343 8.8
2010-10-26 07:42:10 51°16.878 2°52.515 349.8 6.3 345 9.2
2010-10-26 07:42:15 51°16.887 2°52.511 349.6 6.3 343 9.1
2010-10-26 07:42:20 51°16.895 2°52.507 349.5 6.2 344 8.9
2010-10-26 07:42:25 51°16.903 2°52.503 349.8 6.3 344 9
2010-10-26 07:42:31 51°16.913 2°52.498 349.3 6.3 344 9.3
2010-10-26 07:42:35 51°16.92 2°52.495 349.4 6.3 344 9.3
2010-10-26 07:42:40 51°16.928 2°52.491 349.4 6.2 343 8.8
2010-10-26 07:42:45 51°16.936 2°52.487 349.6 6.2 344 9.1
2010-10-26 07:42:50 51°16.944 2°52.483 349.5 6.2 343 8.9
2010-10-26 07:42:55 51°16.953 2°52.479 349.5 6.3 343 8.7
2010-10-26 07:43:00 51°16.961 2°52.475 349.7 6.2 343 8.9
2010-10-26 07:43:05 51°16.969 2°52.471 349.6 6.2 343 8.7
2010-10-26 07:43:10 51°16.978 2°52.467 349.5 6.2 343 8.7
2010-10-26 07:43:16 51°16.987 2°52.462 349.3 6.2 343 8.8
2010-10-26 07:43:20 51°16.994 2°52.459 349.2 6.2 343 8.6
2010-10-26 07:43:24 51°17.001 2°52.456 349.1 6.2 343 8.7
2010-10-26 07:43:30 51°17.011 2°52.451 349.3 6.2 343 8.5
2010-10-26 07:43:35 51°17.019 2°52.447 349.2 6.2 343 8.7
2010-10-26 07:43:40 51°17.027 2°52.443 349.7 6.1 343 8.8
2010-10-26 07:43:45 51°17.035 2°52.439 349.6 6.1 343 8.8
2010-10-26 07:43:50 51°17.043 2°52.435 349.5 6.1 342 8.5
2010-10-26 07:43:55 51°17.051 2°52.431 349.5 6.1 344 8.7
2010-10-26 07:44:00 51°17.06 2°52.427 349.6 6.2 342 8.9
2010-10-26 07:44:04 51°17.066 2°52.424 349.2 6.1 343 9.3
2010-10-26 07:44:10 51°17.076 2°52.419 349.2 6.2 342 9.1
2010-10-26 07:44:15 51°17.084 2°52.415 349.7 6.2 344 9
2010-10-26 07:44:20 51°17.092 2°52.411 349.6 6.2 342 8.8
2010-10-26 07:44:25 51°17.1 2°52.408 349.8 6.1 344 8.8
2010-10-26 07:44:30 51°17.109 2°52.403 349.9 6.2 342 8.9
2010-10-26 07:44:35 51°17.117 2°52.4 349.9 6.2 344 8.9
2010-10-26 07:44:40 51°17.125 2°52.395 350 6.2 343 9
2010-10-26 07:44:45 51°17.133 2°52.392 350 6.2 345 9.2
2010-10-26 07:44:51 51°17.142 2°52.387 349.9 6.1 343 9.3
2010-10-26 07:44:55 51°17.149 2°52.384 349.9 6.2 343 8.9
2010-10-26 07:45:00 51°17.157 2°52.38 349.8 6.2 343 9
2010-10-26 07:45:05 51°17.166 2°52.376 349.4 6.2 343 9
2010-10-26 07:45:10 51°17.174 2°52.372 349.2 6.2 343 9.2
2010-10-26 07:45:15 51°17.182 2°52.368 349.2 6.2 343 9.5
2010-10-26 07:45:20 51°17.191 2°52.364 349.3 6.2 342 9.4
2010-10-26 07:45:25 51°17.199 2°52.359 349.2 6.2 342 9.3
2010-10-26 07:45:30 51°17.207 2°52.355 349 6.2 343 9.5
2010-10-26 07:45:35 51°17.215 2°52.351 349 6.2 342 9.5
2010-10-26 07:45:40 51°17.223 2°52.347 349.1 6.3 344 9.5
2010-10-26 07:45:45 51°17.231 2°52.343 349.5 6.3 344 9.1
2010-10-26 07:45:50 51°17.24 2°52.34 350.1 6.2 347 9.5
2010-10-26 07:45:55 51°17.248 2°52.337 351.7 6.1 347 9.5
2010-10-26 07:46:00 51°17.256 2°52.334 353.6 6.1 348 9.4
2010-10-26 07:46:05 51°17.264 2°52.332 355.7 6.1 350 9.4
2010-10-26 07:46:10 51°17.272 2°52.33 356.6 6.1 351 9.4
2010-10-26 07:46:15 51°17.281 2°52.328 357.7 6.2 353 9.7
2010-10-26 07:46:20 51°17.289 2°52.326 359.1 6.1 352 9.7
2010-10-26 07:46:24 51°17.296 2°52.325 0.1 6 355 9.6
2010-10-26 07:46:30 51°17.306 2°52.324 0.7 6 355 9.6
2010-10-26 07:46:35 51°17.314 2°52.323 1.5 5.9 355 9.6
2010-10-26 07:46:40 51°17.323 2°52.322 1.8 6 356 9.3
2010-10-26 07:46:45 51°17.331 2°52.321 2.3 5.9 357 9.6
2010-10-26 07:46:50 51°17.34 2°52.32 2.5 6 357 9.5
2010-10-26 07:46:55 51°17.348 2°52.32 3 6 356 9.5
2010-10-26 07:47:00 51°17.356 2°52.319 3 5.8 357 9.5
2010-10-26 07:47:05 51°17.364 2°52.318 2.8 5.8 356 9.5
2010-10-26 07:47:11 51°17.375 2°52.317 2.7 6 356 9.4
2010-10-26 07:47:15 51°17.382 2°52.316 2.9 6 356 9.1
2010-10-26 07:47:20 51°17.39 2°52.316 2.9 5.9 357 9.2
2010-10-26 07:47:25 51°17.398 2°52.315 2.9 6.1 356 9.6
2010-10-26 07:47:30 51°17.406 2°52.314 2.6 5.9 356 9.6
2010-10-26 07:47:35 51°17.415 2°52.313 2.5 5.9 355 9.7
2010-10-26 07:47:40 51°17.423 2°52.312 2.1 5.8 356 9.5
2010-10-26 07:47:45 51°17.431 2°52.311 2 5.8 354 9.6
2010-10-26 07:47:50 51°17.439 2°52.309 1.7 5.9 355 9.4
2010-10-26 07:47:55 51°17.448 2°52.308 1.6 6 354 9.6
2010-10-26 07:48:00 51°17.456 2°52.307 1.3 6 355 9.3
2010-10-26 07:48:05 51°17.465 2°52.306 1.5 6 354 9.3
2010-10-26 07:48:10 51°17.473 2°52.305 1.5 6 356 9.4
2010-10-26 07:48:15 51°17.481 2°52.304 1.5 6 353 9.3
2010-10-26 07:48:20 51°17.489 2°52.303 1.7 5.8 356 9.3
2010-10-26 07:48:25 51°17.498 2°52.301 1.4 6 353 9.5
2010-10-26 07:48:30 51°17.506 2°52.3 1.3 6 354 9.5
2010-10-26 07:48:35 51°17.514 2°52.298 1 6 353 9.4
2010-10-26 07:48:40 51°17.522 2°52.297 0.8 6 355 9.7
2010-10-26 07:48:45 51°17.531 2°52.296 0.5 6.1 354 9.6
2010-10-26 07:48:50 51°17.539 2°52.294 0.6 5.9 354 9.4
2010-10-26 07:48:55 51°17.547 2°52.293 0.9 5.9 354 9.5
2010-10-26 07:49:00 51°17.555 2°52.291 0.6 6 353 9.4
2010-10-26 07:49:05 51°17.564 2°52.29 0.6 6.1 354 9.3
2010-10-26 07:49:10 51°17.572 2°52.289 0.7 6.1 354 9.3
2010-10-26 07:49:15 51°17.58 2°52.287 0.7 6.2 355 9.5
2010-10-26 07:49:20 51°17.589 2°52.286 0.7 6 355 9.4
2010-10-26 07:49:24 51°17.595 2°52.284 0.8 6 355 9.7
2010-10-26 07:49:30 51°17.605 2°52.283 0.8 6 355 9.6
2010-10-26 07:49:35 51°17.613 2°52.282 0.9 5.9 354 9.6
2010-10-26 07:49:40 51°17.621 2°52.28 1.1 6.1 355 9.7
2010-10-26 07:49:45 51°17.629 2°52.279 0.9 6 354 9.8
2010-10-26 07:49:50 51°17.638 2°52.278 1.2 6 354 9.5
2010-10-26 07:49:55 51°17.645 2°52.276 0.8 5.8 353 9.8
2010-10-26 07:50:00 51°17.654 2°52.274 0.7 5.9 353 9.8
2010-10-26 07:50:05 51°17.662 2°52.273 0.3 5.9 353 9.3
2010-10-26 07:50:10 51°17.67 2°52.272 0.5 5.9 353 9.3
2010-10-26 07:50:15 51°17.679 2°52.27 0.4 6.1 354 9.5
2010-10-26 07:50:20 51°17.687 2°52.268 0.5 5.9 353 9.4
2010-10-26 07:50:25 51°17.695 2°52.267 0.6 5.9 353 9.6
2010-10-26 07:50:30 51°17.703 2°52.265 0.5 5.8 353 9.3
2010-10-26 07:50:35 51°17.711 2°52.264 0.6 5.9 354 9.4
2010-10-26 07:50:40 51°17.72 2°52.263 0.3 5.9 353 9.5
2010-10-26 07:50:45 51°17.728 2°52.261 0.6 5.9 354 9.5
2010-10-26 07:50:50 51°17.736 2°52.26 0.6 6 353 9.7
2010-10-26 07:50:55 51°17.744 2°52.258 0.3 6 353 9.7
2010-10-26 07:51:00 51°17.753 2°52.257 0.3 6.1 353 9.9
2010-10-26 07:51:05 51°17.761 2°52.255 0.2 6 353 9.8
2010-10-26 07:51:10 51°17.769 2°52.253 0.1 6.1 353 9.7
2010-10-26 07:51:15 51°17.778 2°52.252 0.1 6.1 354 10
2010-10-26 07:51:20 51°17.786 2°52.25 0.1 6.1 353 9.9
2010-10-26 07:51:25 51°17.795 2°52.249 0.1 6.1 355 9.8
2010-10-26 07:51:30 51°17.803 2°52.247 0.7 6.1 353 9.9
2010-10-26 07:51:35 51°17.811 2°52.246 0.5 6.1 354 10
2010-10-26 07:51:40 51°17.819 2°52.244 0.5 6.1 353 10.1
2010-10-26 07:51:44 51°17.826 2°52.243 0.6 6 353 10
2010-10-26 07:51:50 51°17.836 2°52.241 0.2 5.9 353 10
2010-10-26 07:51:55 51°17.844 2°52.239 0.5 6 353 9.9
2010-10-26 07:52:00 51°17.853 2°52.238 0.3 6.1 353 9.7
2010-10-26 07:52:05 51°17.861 2°52.236 0.4 6 354 10
2010-10-26 07:52:10 51°17.869 2°52.235 0.6 6 354 10
2010-10-26 07:52:15 51°17.877 2°52.233 0.4 5.9 352 10
2010-10-26 07:52:20 51°17.886 2°52.232 0.2 6.1 354 10.2
2010-10-26 07:52:25 51°17.894 2°52.23 0.1 6.1 353 10.3
2010-10-26 07:52:30 51°17.903 2°52.228 0.2 6.2 353 10.1
2010-10-26 07:52:35 51°17.911 2°52.227 0.4 6.1 353 10
2010-10-26 07:52:40 51°17.919 2°52.225 0.1 6 353 10
2010-10-26 07:52:45 51°17.927 2°52.223 0.1 5.9 352 10
2010-10-26 07:52:50 51°17.936 2°52.222 0.2 6 353 10.1
2010-10-26 07:52:55 51°17.944 2°52.22 0.5 6.1 352 10
2010-10-26 07:53:00 51°17.952 2°52.218 0.4 6.1 354 10.1
2010-10-26 07:53:05 51°17.961 2°52.217 0.5 6.1 352 10.3
2010-10-26 07:53:10 51°17.969 2°52.215 0.3 5.8 354 10.2
2010-10-26 07:53:15 51°17.977 2°52.213 0.6 5.8 350 10.2
2010-10-26 07:53:20 51°17.985 2°52.211 0.4 6.2 353 10.2
2010-10-26 07:53:25 51°17.994 2°52.21 0.4 6.2 351 10.2
2010-10-26 07:53:30 51°18.003 2°52.208 0.6 6.1 354 10.4
2010-10-26 07:53:35 51°18.011 2°52.206 0.7 6 351 10.2
2010-10-26 07:53:40 51°18.019 2°52.205 0.8 5.9 355 10.2
2010-10-26 07:53:45 51°18.027 2°52.203 1 6 352 10.2
2010-10-26 07:53:50 51°18.036 2°52.202 1.1 6.1 354 9.9
2010-10-26 07:53:55 51°18.044 2°52.2 1.1 6.2 352 10
2010-10-26 07:54:00 51°18.053 2°52.199 0.8 6.2 355 10.2
2010-10-26 07:54:05 51°18.062 2°52.197 0.4 6.2 351 10.1
2010-10-26 07:54:10 51°18.07 2°52.196 0.5 6.2 353 10.1
2010-10-26 07:54:15 51°18.079 2°52.194 0.6 6.3 353 10.2
2010-10-26 07:54:20 51°18.087 2°52.192 0.4 6.2 355 10.4
2010-10-26 07:54:25 51°18.095 2°52.19 0.3 6.1 352 10.3
2010-10-26 07:54:30 51°18.103 2°52.188 0.4 5.9 353 10.2
2010-10-26 07:54:35 51°18.111 2°52.187 0.2 6.2 352 10.4
2010-10-26 07:54:40 51°18.12 2°52.185 0.3 6.1 353 10.3
2010-10-26 07:54:45 51°18.128 2°52.183 0.1 6.1 352 10.4
2010-10-26 07:54:50 51°18.137 2°52.182 0.2 6.1 353 10.7
2010-10-26 07:54:55 51°18.145 2°52.18 0.3 6.2 352 10.4
2010-10-26 07:55:00 51°18.153 2°52.178 0.6 6 354 10.4
2010-10-26 07:55:05 51°18.162 2°52.176 0.5 6 353 10.4
2010-10-26 07:55:10 51°18.17 2°52.175 0.4 6.1 353 10.4
2010-10-26 07:55:15 51°18.179 2°52.173 0.3 6.4 352 10.3
2010-10-26 07:55:20 51°18.188 2°52.171 0.1 6.3 353 10.4
2010-10-26 07:55:25 51°18.196 2°52.17 0.3 6.3 353 10.7
2010-10-26 07:55:30 51°18.205 2°52.167 0.1 6.3 352 10.3
2010-10-26 07:55:35 51°18.213 2°52.166 0.3 6.3 354 10.4
2010-10-26 07:55:40 51°18.222 2°52.164 0.3 6.3 351 10.2
2010-10-26 07:55:45 51°18.23 2°52.163 0.6 6.3 354 10.5
2010-10-26 07:55:50 51°18.238 2°52.16 0.2 6.2 350 10.4
2010-10-26 07:55:55 51°18.246 2°52.158 -999 6.2 354 10.6
2010-10-26 07:56:00 51°18.255 2°52.156 359.7 6.2 350 10.5
2010-10-26 07:56:05 51°18.263 2°52.155 359.6 6.1 353 10.6
2010-10-26 07:56:10 51°18.272 2°52.152 0.1 6.1 351 10.6
2010-10-26 07:56:15 51°18.28 2°52.151 0.1 6.2 353 10.4
2010-10-26 07:56:20 51°18.289 2°52.149 0.1 6.3 353 10.6
2010-10-26 07:56:24 51°18.296 2°52.148 0.2 6.2 353 10.5
2010-10-26 07:56:30 51°18.306 2°52.146 0.8 6.4 353 10.4
2010-10-26 07:56:35 51°18.315 2°52.144 0.8 6.2 354 10.6
2010-10-26 07:56:40 51°18.323 2°52.142 0.8 6.1 353 10.5
2010-10-26 07:56:45 51°18.331 2°52.14 0.5 6.3 352 10.1
2010-10-26 07:56:50 51°18.339 2°52.139 0.4 6.2 354 10.3
2010-10-26 07:56:55 51°18.348 2°52.136 0.2 6.1 352 10.6
2010-10-26 07:57:00 51°18.356 2°52.135 0.1 6.3 352 10.5
2010-10-26 07:57:05 51°18.365 2°52.133 359.9 6.3 352 10.6
2010-10-26 07:57:10 51°18.373 2°52.131 359.7 6 352 10.5
2010-10-26 07:57:15 51°18.381 2°52.129 359.8 5.9 350 10.4
2010-10-26 07:57:20 51°18.389 2°52.127 359.8 6 351 10.4
2010-10-26 07:57:25 51°18.398 2°52.125 0.1 6.1 351 10.6
2010-10-26 07:57:30 51°18.407 2°52.123 359.8 6.2 352 10.5
2010-10-26 07:57:35 51°18.415 2°52.121 0.2 6.2 352 10.6
2010-10-26 07:57:40 51°18.424 2°52.119 0.1 6.2 352 10.7
2010-10-26 07:57:45 51°18.432 2°52.117 0.2 6.2 352 10.4
2010-10-26 07:57:50 51°18.44 2°52.116 0.3 6.1 353 10.8
2010-10-26 07:57:55 51°18.448 2°52.114 0.4 6.1 351 10.7
2010-10-26 07:58:00 51°18.457 2°52.112 0.2 6.1 352 10.6
2010-10-26 07:58:05 51°18.465 2°52.11 0.5 6.1 353 10.7
2010-10-26 07:58:10 51°18.473 2°52.108 0.3 6.1 353 10.6
2010-10-26 07:58:15 51°18.481 2°52.106 0.4 6.1 352 10.8
2010-10-26 07:58:20 51°18.489 2°52.104 0.6 6.1 352 10.6
2010-10-26 07:58:24 51°18.496 2°52.103 0.7 6.1 352 10.6
2010-10-26 07:58:30 51°18.506 2°52.1 0.6 6.1 352 10.6
2010-10-26 07:58:35 51°18.515 2°52.099 0.8 5.9 353 10.7
2010-10-26 07:58:40 51°18.523 2°52.097 0.8 6 352 10.8
2010-10-26 07:58:44 51°18.53 2°52.096 0.8 6.1 353 10.8
2010-10-26 07:58:50 51°18.54 2°52.094 1 6.2 353 10.6
2010-10-26 07:58:55 51°18.549 2°52.092 0.7 6.3 353 10.9
2010-10-26 07:59:00 51°18.558 2°52.09 0.9 6.2 353 11.1
2010-10-26 07:59:05 51°18.566 2°52.089 0.8 6.2 352 11
2010-10-26 07:59:10 51°18.575 2°52.087 0.8 6.2 353 11
2010-10-26 07:59:15 51°18.583 2°52.085 0.6 6.3 352 10.8
2010-10-26 07:59:20 51°18.591 2°52.083 0.4 6.2 353 11.1
2010-10-26 07:59:25 51°18.6 2°52.081 0.6 6.1 352 11
2010-10-26 07:59:30 51°18.608 2°52.08 0.5 6 352 11.2
2010-10-26 07:59:35 51°18.616 2°52.078 0.3 6.1 352 11.4
2010-10-26 07:59:40 51°18.625 2°52.076 0.3 6.3 352 11.5
2010-10-26 07:59:46 51°18.635 2°52.074 0.4 6.2 353 11.3
2010-10-26 07:59:50 51°18.641 2°52.072 0.4 6.2 353 11.2
2010-10-26 07:59:55 51°18.65 2°52.071 0.2 6.2 353 11.7
2010-10-26 08:00:00 51°18.658 2°52.068 0.1 6.1 351 11.3
2010-10-26 08:00:05 51°18.667 2°52.067 0.1 6.1 353 11.5
2010-10-26 08:00:10 51°18.676 2°52.065 0.1 6.2 352 11.6
2010-10-26 08:00:15 51°18.684 2°52.063 -999 6.2 352 11.8
2010-10-26 08:00:20 51°18.693 2°52.061 -999 6.2 352 11.5
2010-10-26 08:00:25 51°18.701 2°52.06 0.1 6.1 354 12
2010-10-26 08:00:30 51°18.71 2°52.058 0.2 6.1 352 12.2
2010-10-26 08:00:35 51°18.718 2°52.056 0.1 6 352 11.8
2010-10-26 08:00:40 51°18.726 2°52.054 0.3 6 352 11.7
2010-10-26 08:00:44 51°18.733 2°52.053 0.3 6.1 353 11.4
2010-10-26 08:00:50 51°18.744 2°52.051 0.4 6.1 353 12
2010-10-26 08:00:55 51°18.752 2°52.049 0.3 6 353 12.2
2010-10-26 08:01:00 51°18.759 2°52.047 0.5 6 353 12.3
2010-10-26 08:01:04 51°18.766 2°52.046 0.6 6 353 12.3
2010-10-26 08:01:10 51°18.776 2°52.044 0.1 6 351 12.1
2010-10-26 08:01:15 51°18.785 2°52.042 0.2 6 351 12.1
2010-10-26 08:01:20 51°18.793 2°52.04 0.2 6.1 353 12.2
2010-10-26 08:01:25 51°18.802 2°52.038 0.1 6.1 352 12.3
2010-10-26 08:01:30 51°18.81 2°52.036 0.1 6.1 353 12.4
2010-10-26 08:01:35 51°18.818 2°52.034 0.2 6 351 12.4
2010-10-26 08:01:41 51°18.828 2°52.032 0.3 6 352 12.2
2010-10-26 08:01:44 51°18.833 2°52.031 0.2 6 352 12.6
2010-10-26 08:01:50 51°18.843 2°52.029 0.4 6 352 12.3
2010-10-26 08:01:55 51°18.851 2°52.027 0.2 6.1 352 12.8
2010-10-26 08:02:00 51°18.86 2°52.025 0.5 6.1 352 12.4
2010-10-26 08:02:04 51°18.867 2°52.024 0.5 6.2 353 12.7
2010-10-26 08:02:10 51°18.877 2°52.022 0.1 6.2 352 12.8
2010-10-26 08:02:15 51°18.886 2°52.02 0.1 6.1 352 12.8
2010-10-26 08:02:20 51°18.894 2°52.017 -999 6.2 352 12.8
2010-10-26 08:02:25 51°18.903 2°52.015 359.8 6.3 351 12.8
2010-10-26 08:02:30 51°18.911 2°52.013 359.9 6.2 351 12.8
2010-10-26 08:02:35 51°18.92 2°52.011 359.7 6.2 350 13
2010-10-26 08:02:40 51°18.928 2°52.009 359.9 6.1 351 13.1
2010-10-26 08:02:44 51°18.935 2°52.007 0.1 6.1 352 13
2010-10-26 08:02:50 51°18.945 2°52.005 0.1 6.2 352 12.9
2010-10-26 08:02:55 51°18.954 2°52.003 0.3 6.2 351 12.9
2010-10-26 08:03:00 51°18.962 2°52.001 0.1 6.2 352 13.1
2010-10-26 08:03:04 51°18.968 2°51.999 359.9 6.3 352 13.3
2010-10-26 08:03:09 51°18.977 2°51.997 0.1 6.2 351 13.2
2010-10-26 08:03:15 51°18.987 2°51.994 0.2 6.1 351 13
2010-10-26 08:03:20 51°18.995 2°51.992 0.2 6.1 352 13
2010-10-26 08:03:24 51°19.002 2°51.991 0.2 6.3 352 13.1
2010-10-26 08:03:30 51°19.013 2°51.989 0.5 6.2 351 13.2
2010-10-26 08:03:35 51°19.021 2°51.987 0.7 6.1 352 13.5
2010-10-26 08:03:40 51°19.03 2°51.985 0.7 6.2 351 13.2
2010-10-26 08:03:45 51°19.038 2°51.983 0.7 6.2 352 13.6
2010-10-26 08:03:50 51°19.047 2°51.981 0.7 6.3 352 13.4
2010-10-26 08:03:55 51°19.055 2°51.979 0.7 6.1 353 13.3
2010-10-26 08:04:00 51°19.064 2°51.977 0.7 6.3 352 13.8
2010-10-26 08:04:04 51°19.07 2°51.975 0.5 6.3 352 13.6
2010-10-26 08:04:10 51°19.08 2°51.973 0.5 6.3 352 13.5
2010-10-26 08:04:15 51°19.089 2°51.971 0.3 6.3 352 13.8
2010-10-26 08:04:20 51°19.098 2°51.969 0.1 6.3 351 13.5
2010-10-26 08:04:24 51°19.104 2°51.967 0.1 6.2 351 13.5
2010-10-26 08:04:30 51°19.115 2°51.965 0.3 6.2 350 13.4
2010-10-26 08:04:35 51°19.123 2°51.962 0.2 6.2 351 13
2010-10-26 08:04:40 51°19.131 2°51.96 359.9 6.1 350 13.7
2010-10-26 08:04:45 51°19.14 2°51.958 0.1 6.1 350 13.8
2010-10-26 08:04:50 51°19.148 2°51.955 0.1 6.2 349 13.7
2010-10-26 08:04:55 51°19.156 2°51.953 359.9 6.1 351 13.5
2010-10-26 08:05:00 51°19.165 2°51.951 359.8 6.2 350 13.6
2010-10-26 08:05:04 51°19.172 2°51.949 0.3 6.1 351 14.1
2010-10-26 08:05:10 51°19.182 2°51.946 0.8 6.2 350 14.1
2010-10-26 08:05:15 51°19.19 2°51.945 0.8 6.2 351 14
2010-10-26 08:05:20 51°19.199 2°51.942 0.8 6.2 352 14.3
2010-10-26 08:05:24 51°19.205 2°51.941 0.8 6.1 352 14.4
2010-10-26 08:05:30 51°19.215 2°51.938 0.8 6.2 350 14.1
2010-10-26 08:05:35 51°19.224 2°51.936 0.4 6.1 350 13.8
2010-10-26 08:05:40 51°19.232 2°51.933 0.1 6.1 349 14.1
2010-10-26 08:05:45 51°19.241 2°51.931 359.7 6.2 349 13.9
2010-10-26 08:05:49 51°19.248 2°51.929 359.8 6.1 350 14.2
2010-10-26 08:05:55 51°19.258 2°51.926 0.1 6.2 350 14.5
2010-10-26 08:06:00 51°19.266 2°51.924 359.9 6.1 350 14.4
2010-10-26 08:06:05 51°19.274 2°51.921 359.9 6.1 350 14.5
2010-10-26 08:06:10 51°19.283 2°51.919 0.2 6.1 350 14.5
2010-10-26 08:06:15 51°19.291 2°51.917 0.3 6.2 350 14.4
2010-10-26 08:06:20 51°19.3 2°51.915 0.5 6.1 351 14.4
2010-10-26 08:06:24 51°19.306 2°51.913 0.8 6.1 351 14.4
2010-10-26 08:06:31 51°19.318 2°51.91 0.8 6.1 351 14.3
2010-10-26 08:06:35 51°19.325 2°51.908 0.8 6.2 350 14.2
2010-10-26 08:06:40 51°19.333 2°51.906 0.5 6.2 351 14.5
2010-10-26 08:06:45 51°19.342 2°51.903 0.4 6.2 350 14.6
2010-10-26 08:06:50 51°19.35 2°51.901 0.3 6.2 350 14.7
2010-10-26 08:06:55 51°19.359 2°51.899 0.2 6.1 351 14.6
2010-10-26 08:07:00 51°19.367 2°51.896 0.4 6.2 350 14.4
2010-10-26 08:07:05 51°19.375 2°51.894 0.2 6.2 350 14.4
2010-10-26 08:07:10 51°19.384 2°51.892 0.2 6.1 350 14.6
2010-10-26 08:07:15 51°19.392 2°51.89 0.2 6.2 351 14.7
2010-10-26 08:07:20 51°19.401 2°51.888 359.9 6.1 350 14.4
2010-10-26 08:07:24 51°19.407 2°51.886 359.9 6.2 350 14.6
2010-10-26 08:07:30 51°19.418 2°51.883 359.8 6.1 352 14.9
2010-10-26 08:07:35 51°19.426 2°51.88 359.6 6.1 349 14.7
2010-10-26 08:07:40 51°19.435 2°51.878 359.7 6.1 350 14.3
2010-10-26 08:07:44 51°19.442 2°51.876 359.9 6.2 351 14.3
2010-10-26 08:07:49 51°19.45 2°51.873 359.8 6.1 349 14.4
2010-10-26 08:07:55 51°19.46 2°51.871 359.8 6.1 351 14.6
2010-10-26 08:08:00 51°19.468 2°51.868 359.6 6.1 349 14.5
2010-10-26 08:08:05 51°19.477 2°51.865 359.9 6.3 350 14.6
2010-10-26 08:08:10 51°19.485 2°51.863 0.1 6.2 350 14.4
2010-10-26 08:08:15 51°19.493 2°51.861 -999 6.1 349 14.5
2010-10-26 08:08:20 51°19.501 2°51.858 0.1 6.1 350 14.7
2010-10-26 08:08:24 51°19.508 2°51.856 0.1 6.1 349 14.9
2010-10-26 08:08:30 51°19.518 2°51.853 0.1 6.2 350 14.7
2010-10-26 08:08:35 51°19.527 2°51.851 0.2 6.2 350 14.7
2010-10-26 08:08:40 51°19.535 2°51.849 0.3 6.2 350 14.7
2010-10-26 08:08:44 51°19.542 2°51.847 0.3 6.1 350 14.7
2010-10-26 08:08:50 51°19.552 2°51.844 0.7 6.1 350 14.7
2010-10-26 08:08:55 51°19.56 2°51.841 0.8 6.2 350 14.5
2010-10-26 08:09:01 51°19.57 2°51.839 0.7 6.2 350 14.6
2010-10-26 08:09:05 51°19.577 2°51.837 0.6 6.1 350 15.1
2010-10-26 08:09:10 51°19.585 2°51.834 0.3 6.1 349 15.3
2010-10-26 08:09:15 51°19.594 2°51.832 0.2 6.1 349 15.1
2010-10-26 08:09:20 51°19.602 2°51.829 0.2 6 349 15.1
2010-10-26 08:09:25 51°19.61 2°51.826 -999 6.2 348 14.7
2010-10-26 08:09:30 51°19.619 2°51.824 -999 6.2 349 14.7
2010-10-26 08:09:35 51°19.627 2°51.821 359.9 6.1 349 14.9
2010-10-26 08:09:40 51°19.635 2°51.819 0.1 6.2 349 14.6
2010-10-26 08:09:44 51°19.642 2°51.817 0.1 6.2 350 14.4
2010-10-26 08:09:50 51°19.652 2°51.814 0.3 6.1 350 14.7
2010-10-26 08:09:55 51°19.66 2°51.811 0.3 6 349 15
2010-10-26 08:10:00 51°19.668 2°51.809 0.5 6.1 349 14.8
2010-10-26 08:10:04 51°19.675 2°51.807 0.4 6.1 351 14.6
2010-10-26 08:10:09 51°19.683 2°51.804 0.1 6.1 350 14.6
2010-10-26 08:10:15 51°19.694 2°51.802 0.5 6.1 350 14.8
2010-10-26 08:10:20 51°19.702 2°51.8 0.8 6.1 350 15
2010-10-26 08:10:24 51°19.708 2°51.798 1 6.1 350 15.1
2010-10-26 08:10:30 51°19.718 2°51.795 0.9 6.1 351 14.9
2010-10-26 08:10:35 51°19.727 2°51.793 0.8 6.1 351 15.2
2010-10-26 08:10:40 51°19.735 2°51.791 0.8 6.1 349 14.9
2010-10-26 08:10:45 51°19.743 2°51.789 0.9 6.1 351 14.8
2010-10-26 08:10:50 51°19.752 2°51.786 1.1 6.1 351 15
2010-10-26 08:10:55 51°19.76 2°51.784 1 6.2 350 14.7
2010-10-26 08:11:00 51°19.769 2°51.782 1 6.1 352 14.8
2010-10-26 08:11:05 51°19.777 2°51.78 0.9 6.1 350 15
2010-10-26 08:11:10 51°19.785 2°51.777 0.9 6.1 351 14.8
2010-10-26 08:11:15 51°19.794 2°51.775 1 6.2 350 15.1
2010-10-26 08:11:20 51°19.802 2°51.773 0.8 6.1 351 14.8
2010-10-26 08:11:24 51°19.809 2°51.771 0.3 6.1 350 14.6
2010-10-26 08:11:30 51°19.819 2°51.769 0.5 6.1 352 14.3
2010-10-26 08:11:35 51°19.827 2°51.767 0.6 6.1 351 14.7
2010-10-26 08:11:40 51°19.835 2°51.764 0.5 6.1 350 14.6
2010-10-26 08:11:44 51°19.842 2°51.763 0.7 6.1 350 14.4
2010-10-26 08:11:50 51°19.852 2°51.76 0.1 6.1 350 14.5
2010-10-26 08:11:55 51°19.861 2°51.757 0.1 6.2 350 14.2
2010-10-26 08:12:00 51°19.869 2°51.755 0.3 6.2 351 14.6
2010-10-26 08:12:04 51°19.876 2°51.753 0.2 6.1 349 14.5
2010-10-26 08:12:10 51°19.886 2°51.75 0.1 6.2 350 14.5
2010-10-26 08:12:15 51°19.894 2°51.748 -999 6.2 350 14.4
2010-10-26 08:12:20 51°19.903 2°51.746 359.8 6.2 351 14.2
2010-10-26 08:12:25 51°19.911 2°51.743 359.8 6.2 349 14
2010-10-26 08:12:30 51°19.919 2°51.741 -999 6.2 350 14.2
2010-10-26 08:12:35 51°19.927 2°51.738 0.1 6.1 352 14.4
2010-10-26 08:12:40 51°19.936 2°51.736 -999 6.1 350 14
2010-10-26 08:12:44 51°19.943 2°51.735 359.8 6.1 351 13.8
2010-10-26 08:12:50 51°19.953 2°51.731 359.4 6.1 349 14.1
2010-10-26 08:12:55 51°19.961 2°51.729 359.2 6.1 351 14.1
2010-10-26 08:13:00 51°19.969 2°51.726 359.4 6.1 348 14.1
2010-10-26 08:13:05 51°19.977 2°51.724 359.4 6.1 350 14.3
2010-10-26 08:13:11 51°19.987 2°51.721 359.4 6.1 348 13.9
2010-10-26 08:13:15 51°19.994 2°51.719 359.4 6.1 349 13.9
2010-10-26 08:13:20 51°20.002 2°51.716 359.8 6.1 349 13.6
2010-10-26 08:13:25 51°20.01 2°51.714 0.1 6.1 350 13.6
2010-10-26 08:13:30 51°20.019 2°51.711 0.3 6.1 349 13.7
2010-10-26 08:13:35 51°20.027 2°51.709 0.3 6.1 350 13.5
2010-10-26 08:13:40 51°20.035 2°51.707 0.3 6.1 350 12.9
2010-10-26 08:13:44 51°20.042 2°51.705 0.2 6.1 350 12.8
2010-10-26 08:13:50 51°20.052 2°51.702 0.2 6.1 350 12.3
2010-10-26 08:13:55 51°20.06 2°51.699 0.1 6.1 349 12.2
2010-10-26 08:14:00 51°20.069 2°51.696 -999 6.2 348 12
2010-10-26 08:14:05 51°20.077 2°51.694 359.6 6.2 349 11.9
2010-10-26 08:14:10 51°20.086 2°51.691 359.5 6.1 349 11.9
2010-10-26 08:14:15 51°20.094 2°51.688 359.3 6.1 347 11.9
2010-10-26 08:14:21 51°20.104 2°51.685 359.4 6.1 350 11.9
2010-10-26 08:14:24 51°20.109 2°51.683 359.8 6.2 347 11.9
2010-10-26 08:14:29 51°20.117 2°51.68 -999 6.2 350 12.1
2010-10-26 08:14:35 51°20.127 2°51.677 0.2 6 351 12.7
2010-10-26 08:14:40 51°20.136 2°51.675 0.3 6.1 350 12.3
2010-10-26 08:14:44 51°20.142 2°51.673 0.3 6.1 351 12.4
2010-10-26 08:14:50 51°20.152 2°51.67 0.8 6.1 350 12.4
2010-10-26 08:14:55 51°20.161 2°51.668 0.8 6.1 349 12.3
2010-10-26 08:15:00 51°20.169 2°51.666 0.9 6.2 350 12.3
2010-10-26 08:15:05 51°20.178 2°51.663 1.2 6.1 350 12.3
2010-10-26 08:15:10 51°20.187 2°51.661 1.2 6.1 351 12.4
2010-10-26 08:15:15 51°20.195 2°51.659 1.5 6.1 351 12.3
2010-10-26 08:15:20 51°20.203 2°51.657 1.6 6.1 350 12.5
2010-10-26 08:15:25 51°20.211 2°51.654 1.3 6.2 350 12.3
2010-10-26 08:15:30 51°20.22 2°51.652 1.1 6.2 350 12.2
2010-10-26 08:15:35 51°20.228 2°51.65 1.1 6.1 350 12.4
2010-10-26 08:15:41 51°20.238 2°51.647 1.1 6.1 349 12.4
2010-10-26 08:15:44 51°20.243 2°51.646 1 6 350 12.3
2010-10-26 08:15:50 51°20.253 2°51.643 1.5 6.1 350 11.9
2010-10-26 08:15:55 51°20.261 2°51.641 1.4 6.1 351 12.1
2010-10-26 08:16:01 51°20.271 2°51.638 1 6.1 349 11.4
2010-10-26 08:16:04 51°20.276 2°51.637 1.3 6.1 351 11.8
2010-10-26 08:16:11 51°20.288 2°51.633 1.1 6.2 350 11.9
2010-10-26 08:16:15 51°20.294 2°51.632 0.8 6.1 350 12.4
2010-10-26 08:16:20 51°20.303 2°51.629 0.3 6.1 349 12.2
2010-10-26 08:16:24 51°20.309 2°51.627 0.3 6.1 349 11.9
2010-10-26 08:16:30 51°20.319 2°51.624 0.4 6.2 350 12.4
2010-10-26 08:16:35 51°20.328 2°51.621 0.4 6.2 349 12.7
2010-10-26 08:16:40 51°20.336 2°51.619 -999 6.1 349 12.6
2010-10-26 08:16:44 51°20.342 2°51.617 -999 6.1 348 12.6
2010-10-26 08:16:50 51°20.352 2°51.614 359.9 6.2 349 12.5
2010-10-26 08:16:56 51°20.362 2°51.61 359.8 6.2 349 12.4
2010-10-26 08:17:00 51°20.369 2°51.608 0.3 6.2 349 12.7
2010-10-26 08:17:04 51°20.376 2°51.606 0.4 6.2 348 12.6
2010-10-26 08:17:10 51°20.386 2°51.603 0.2 6.2 349 12.6
2010-10-26 08:17:14 51°20.393 2°51.601 0.2 6.2 350 12.9
2010-10-26 08:17:20 51°20.403 2°51.598 0.2 6.2 350 12.9
2010-10-26 08:17:25 51°20.411 2°51.596 0.2 6.3 350 12.6
2010-10-26 08:17:30 51°20.42 2°51.593 0.1 6.2 350 12.7
2010-10-26 08:17:35 51°20.428 2°51.59 359.8 6.2 348 12.8
2010-10-26 08:17:40 51°20.437 2°51.588 -999 6.3 349 12.7
2010-10-26 08:17:45 51°20.445 2°51.585 359.9 6.3 350 12.9
2010-10-26 08:17:50 51°20.454 2°51.583 359.6 6.3 350 13.1
2010-10-26 08:17:55 51°20.462 2°51.58 359.8 6.3 349 13
2010-10-26 08:18:01 51°20.472 2°51.577 359.8 6.3 350 13
2010-10-26 08:18:05 51°20.479 2°51.575 359.7 6.3 350 13.1
2010-10-26 08:18:10 51°20.488 2°51.573 359.9 6.3 350 13.4
2010-10-26 08:18:15 51°20.496 2°51.57 359.9 6.3 349 13.5
2010-10-26 08:18:21 51°20.506 2°51.567 -999 6.3 350 13.3
2010-10-26 08:18:25 51°20.513 2°51.565 359.9 6.3 350 13.4
2010-10-26 08:18:30 51°20.522 2°51.563 0.2 6.4 349 14
2010-10-26 08:18:35 51°20.531 2°51.56 359.9 6.4 349 13.9
2010-10-26 08:18:41 51°20.541 2°51.557 359.8 6.2 349 13.9
2010-10-26 08:18:45 51°20.548 2°51.555 359.6 6.3 350 13.7
2010-10-26 08:18:50 51°20.556 2°51.553 359.7 6.1 351 13.8
2010-10-26 08:18:56 51°20.566 2°51.55 0.7 6.2 350 14.2
2010-10-26 08:19:01 51°20.574 2°51.548 0.4 6.2 350 14.3
2010-10-26 08:19:05 51°20.581 2°51.546 0.8 6.2 350 14.3
2010-10-26 08:19:10 51°20.589 2°51.544 0.5 6.2 350 14.6
2010-10-26 08:19:15 51°20.598 2°51.542 0.8 6.1 352 15
2010-10-26 08:19:21 51°20.608 2°51.538 0.8 6.1 349 14.9
2010-10-26 08:19:25 51°20.615 2°51.537 0.6 6.2 350 14.5
2010-10-26 08:19:30 51°20.623 2°51.535 0.8 6.1 353 14.7
2010-10-26 08:19:35 51°20.631 2°51.533 0.9 6.1 351 14.6
2010-10-26 08:19:41 51°20.641 2°51.53 1.1 6.1 352 14.5
2010-10-26 08:19:45 51°20.648 2°51.529 1.1 6.1 351 14.4
2010-10-26 08:19:51 51°20.658 2°51.526 0.9 6.2 351 14.5
2010-10-26 08:19:55 51°20.665 2°51.525 0.6 6.1 351 14.2
2010-10-26 08:20:01 51°20.675 2°51.522 0.3 6.1 351 14.5
2010-10-26 08:20:05 51°20.681 2°51.52 -999 6.1 350 14.6
2010-10-26 08:20:10 51°20.69 2°51.517 359.6 6.1 348 14.6
2010-10-26 08:20:15 51°20.698 2°51.515 359.2 6.2 349 14.7
2010-10-26 08:20:21 51°20.708 2°51.511 359 6.2 348 14.6
2010-10-26 08:20:25 51°20.715 2°51.509 358.8 6.2 349 14.7
2010-10-26 08:20:30 51°20.723 2°51.506 358.9 6.2 349 15
2010-10-26 08:20:35 51°20.732 2°51.504 359.1 6.2 349 15.1
2010-10-26 08:20:41 51°20.742 2°51.501 359.3 6.2 349 14.8
2010-10-26 08:20:45 51°20.748 2°51.499 359.7 6.2 350 14.9
2010-10-26 08:20:50 51°20.757 2°51.496 0.1 6.2 351 15.3
2010-10-26 08:20:56 51°20.767 2°51.493 359.7 6.3 348 15.3
2010-10-26 08:21:01 51°20.775 2°51.491 359.9 6.1 350 15.5
2010-10-26 08:21:05 51°20.782 2°51.488 359.6 6.1 349 15.6
2010-10-26 08:21:10 51°20.79 2°51.486 359.6 6.1 350 16
2010-10-26 08:21:15 51°20.799 2°51.483 359.7 6.2 349 15.8
2010-10-26 08:21:21 51°20.809 2°51.48 359.4 6 350 16
2010-10-26 08:21:25 51°20.816 2°51.478 359.7 6.1 348 15.9
2010-10-26 08:21:30 51°20.824 2°51.476 359.9 6.1 350 16.1
2010-10-26 08:21:36 51°20.834 2°51.473 0.3 6.1 349 16.3
2010-10-26 08:21:41 51°20.842 2°51.471 0.1 6.1 350 16.3
2010-10-26 08:21:45 51°20.849 2°51.469 0.3 6.1 351 16.3
2010-10-26 08:21:50 51°20.858 2°51.466 0.2 6.2 350 16.2
2010-10-26 08:21:56 51°20.868 2°51.465 0.4 6.1 352 16.5
2010-10-26 08:22:01 51°20.876 2°51.463 0.8 6.1 351 16.7
2010-10-26 08:22:05 51°20.882 2°51.461 0.9 6 352 16.5
2010-10-26 08:22:10 51°20.891 2°51.459 1.2 6.1 353 16.9
2010-10-26 08:22:15 51°20.899 2°51.457 1.1 6.1 351 16.7
2010-10-26 08:22:20 51°20.907 2°51.455 0.9 6.1 350 17
2010-10-26 08:22:25 51°20.916 2°51.452 0.8 6.1 350 17.2
2010-10-26 08:22:31 51°20.926 2°51.45 0.6 6 350 17.2
2010-10-26 08:22:35 51°20.932 2°51.448 0.6 6.1 350 17